sensor_id;sensor_type;location;lat;lon;timestamp;P1;durP1;ratioP1;P2;durP2;ratioP2
38224;SDS011;24025;48.138;11.428;2023-03-21T00:00:58;1.25;;;1.10;;
38224;SDS011;24025;48.138;11.428;2023-03-21T00:03:34;4.95;;;1.10;;
38224;SDS011;24025;48.138;11.428;2023-03-21T00:06:06;2.55;;;1.23;;
38224;SDS011;24025;48.138;11.428;2023-03-21T00:08:41;1.63;;;1.10;;
38224;SDS011;24025;48.138;11.428;2023-03-21T00:11:12;1.70;;;1.23;;
38224;SDS011;24025;48.138;11.428;2023-03-21T00:13:44;1.90;;;1.00;;
38224;SDS011;24025;48.138;11.428;2023-03-21T00:16:18;6.07;;;1.42;;
38224;SDS011;24025;48.138;11.428;2023-03-21T00:19:00;4.07;;;1.98;;
38224;SDS011;24025;48.138;11.428;2023-03-21T00:21:36;3.08;;;2.28;;
38224;SDS011;24025;48.138;11.428;2023-03-21T00:24:25;3.65;;;1.30;;
38224;SDS011;24025;48.138;11.428;2023-03-21T00:26:57;2.95;;;1.50;;
38224;SDS011;24025;48.138;11.428;2023-03-21T00:29:49;1.60;;;1.30;;
38224;SDS011;24025;48.138;11.428;2023-03-21T00:32:21;6.35;;;3.08;;
38224;SDS011;24025;48.138;11.428;2023-03-21T00:34:53;6.50;;;2.38;;
38224;SDS011;24025;48.138;11.428;2023-03-21T00:37:46;3.30;;;2.80;;
38224;SDS011;24025;48.138;11.428;2023-03-21T00:40:18;4.28;;;2.13;;
38224;SDS011;24025;48.138;11.428;2023-03-21T00:43:02;2.85;;;1.90;;
38224;SDS011;24025;48.138;11.428;2023-03-21T00:45:34;5.43;;;1.77;;
38224;SDS011;24025;48.138;11.428;2023-03-21T00:48:07;2.60;;;1.35;;
38224;SDS011;24025;48.138;11.428;2023-03-21T00:50:40;5.63;;;1.80;;
38224;SDS011;24025;48.138;11.428;2023-03-21T00:53:17;2.90;;;1.35;;
38224;SDS011;24025;48.138;11.428;2023-03-21T00:55:49;5.65;;;1.40;;
38224;SDS011;24025;48.138;11.428;2023-03-21T00:58:21;1.75;;;1.30;;
38224;SDS011;24025;48.138;11.428;2023-03-21T01:00:53;3.55;;;1.30;;
38224;SDS011;24025;48.138;11.428;2023-03-21T01:03:24;2.22;;;1.30;;
38224;SDS011;24025;48.138;11.428;2023-03-21T01:05:56;4.00;;;1.25;;
38224;SDS011;24025;48.138;11.428;2023-03-21T01:08:39;3.15;;;1.27;;
38224;SDS011;24025;48.138;11.428;2023-03-21T01:11:24;1.70;;;1.20;;
38224;SDS011;24025;48.138;11.428;2023-03-21T01:13:58;2.10;;;1.63;;
38224;SDS011;24025;48.138;11.428;2023-03-21T01:19:24;1.75;;;1.33;;
38224;SDS011;24025;48.138;11.428;2023-03-21T01:22:19;2.58;;;1.55;;
38224;SDS011;24025;48.138;11.428;2023-03-21T01:24:51;6.35;;;1.70;;
38224;SDS011;24025;48.138;11.428;2023-03-21T01:27:33;3.77;;;1.17;;
38224;SDS011;24025;48.138;11.428;2023-03-21T01:30:05;1.83;;;1.40;;
38224;SDS011;24025;48.138;11.428;2023-03-21T01:32:49;1.95;;;1.38;;
38224;SDS011;24025;48.138;11.428;2023-03-21T01:35:21;4.00;;;1.25;;
38224;SDS011;24025;48.138;11.428;2023-03-21T01:37:53;1.40;;;1.10;;
38224;SDS011;24025;48.138;11.428;2023-03-21T01:40:25;4.57;;;1.75;;
38224;SDS011;24025;48.138;11.428;2023-03-21T01:42:57;3.17;;;1.33;;
38224;SDS011;24025;48.138;11.428;2023-03-21T01:48:39;2.40;;;1.67;;
38224;SDS011;24025;48.138;11.428;2023-03-21T01:51:12;1.67;;;1.23;;
38224;SDS011;24025;48.138;11.428;2023-03-21T01:53:44;1.17;;;0.88;;
38224;SDS011;24025;48.138;11.428;2023-03-21T01:59:00;1.38;;;1.15;;
38224;SDS011;24025;48.138;11.428;2023-03-21T02:01:38;2.90;;;1.30;;
38224;SDS011;24025;48.138;11.428;2023-03-21T02:04:12;2.95;;;1.50;;
38224;SDS011;24025;48.138;11.428;2023-03-21T02:06:51;4.28;;;2.05;;
38224;SDS011;24025;48.138;11.428;2023-03-21T02:09:25;3.60;;;2.08;;
38224;SDS011;24025;48.138;11.428;2023-03-21T02:12:02;2.97;;;1.63;;
38224;SDS011;24025;48.138;11.428;2023-03-21T02:14:34;2.40;;;1.33;;
38224;SDS011;24025;48.138;11.428;2023-03-21T02:25:35;5.97;;;1.40;;
38224;SDS011;24025;48.138;11.428;2023-03-21T02:28:24;1.80;;;1.10;;
38224;SDS011;24025;48.138;11.428;2023-03-21T02:48:33;2.33;;;1.77;;
38224;SDS011;24025;48.138;11.428;2023-03-21T02:51:21;2.35;;;1.60;;
38224;SDS011;24025;48.138;11.428;2023-03-21T02:54:08;1.73;;;1.38;;
38224;SDS011;24025;48.138;11.428;2023-03-21T02:57:05;3.05;;;1.95;;
38224;SDS011;24025;48.138;11.428;2023-03-21T02:59:37;1.73;;;1.58;;
38224;SDS011;24025;48.138;11.428;2023-03-21T03:02:25;2.17;;;1.50;;
38224;SDS011;24025;48.138;11.428;2023-03-21T03:04:57;1.33;;;1.15;;
38224;SDS011;24025;48.138;11.428;2023-03-21T03:07:37;3.58;;;1.35;;
38224;SDS011;24025;48.138;11.428;2023-03-21T03:16:12;2.25;;;1.50;;
38224;SDS011;24025;48.138;11.428;2023-03-21T03:19:01;4.00;;;1.50;;
38224;SDS011;24025;48.138;11.428;2023-03-21T03:24:20;2.58;;;1.30;;
38224;SDS011;24025;48.138;11.428;2023-03-21T03:26:58;2.58;;;1.88;;
38224;SDS011;24025;48.138;11.428;2023-03-21T03:29:36;2.28;;;1.52;;
38224;SDS011;24025;48.138;11.428;2023-03-21T03:32:11;2.97;;;1.67;;
38224;SDS011;24025;48.138;11.428;2023-03-21T03:34:51;1.67;;;1.40;;
38224;SDS011;24025;48.138;11.428;2023-03-21T03:37:27;2.15;;;1.52;;
38224;SDS011;24025;48.138;11.428;2023-03-21T03:40:17;1.60;;;1.40;;
38224;SDS011;24025;48.138;11.428;2023-03-21T03:43:00;3.75;;;1.42;;
38224;SDS011;24025;48.138;11.428;2023-03-21T03:45:41;2.65;;;1.38;;
38224;SDS011;24025;48.138;11.428;2023-03-21T03:54:01;3.92;;;1.45;;
38224;SDS011;24025;48.138;11.428;2023-03-21T03:56:37;4.20;;;1.60;;
38224;SDS011;24025;48.138;11.428;2023-03-21T03:59:09;1.70;;;1.48;;
38224;SDS011;24025;48.138;11.428;2023-03-21T04:01:41;1.55;;;1.27;;
38224;SDS011;24025;48.138;11.428;2023-03-21T04:04:12;4.03;;;1.67;;
38224;SDS011;24025;48.138;11.428;2023-03-21T04:06:47;2.15;;;1.30;;
38224;SDS011;24025;48.138;11.428;2023-03-21T04:09:21;2.38;;;1.70;;
38224;SDS011;24025;48.138;11.428;2023-03-21T04:12:13;2.83;;;1.35;;
38224;SDS011;24025;48.138;11.428;2023-03-21T04:14:44;2.03;;;1.45;;
38224;SDS011;24025;48.138;11.428;2023-03-21T04:17:17;3.70;;;1.90;;
38224;SDS011;24025;48.138;11.428;2023-03-21T04:19:49;2.58;;;1.55;;
38224;SDS011;24025;48.138;11.428;2023-03-21T04:22:27;2.33;;;1.45;;
38224;SDS011;24025;48.138;11.428;2023-03-21T04:24:59;5.03;;;1.55;;
38224;SDS011;24025;48.138;11.428;2023-03-21T04:27:35;3.10;;;1.58;;
38224;SDS011;24025;48.138;11.428;2023-03-21T04:30:07;8.50;;;1.73;;
38224;SDS011;24025;48.138;11.428;2023-03-21T04:32:42;4.30;;;1.80;;
38224;SDS011;24025;48.138;11.428;2023-03-21T04:35:13;2.78;;;1.90;;
38224;SDS011;24025;48.138;11.428;2023-03-21T04:37:45;3.22;;;2.08;;
38224;SDS011;24025;48.138;11.428;2023-03-21T04:40:17;3.50;;;1.67;;
38224;SDS011;24025;48.138;11.428;2023-03-21T04:45:21;3.00;;;2.08;;
38224;SDS011;24025;48.138;11.428;2023-03-21T04:47:52;2.45;;;1.77;;
38224;SDS011;24025;48.138;11.428;2023-03-21T04:50:24;2.83;;;1.57;;
38224;SDS011;24025;48.138;11.428;2023-03-21T04:52:55;2.35;;;1.63;;
38224;SDS011;24025;48.138;11.428;2023-03-21T04:55:27;3.75;;;2.03;;
38224;SDS011;24025;48.138;11.428;2023-03-21T04:58:02;2.55;;;1.85;;
38224;SDS011;24025;48.138;11.428;2023-03-21T05:00:34;2.17;;;1.38;;
38224;SDS011;24025;48.138;11.428;2023-03-21T05:03:09;2.08;;;1.67;;
38224;SDS011;24025;48.138;11.428;2023-03-21T05:05:40;2.70;;;1.50;;
38224;SDS011;24025;48.138;11.428;2023-03-21T05:08:12;3.40;;;1.67;;
38224;SDS011;24025;48.138;11.428;2023-03-21T05:10:44;5.25;;;1.67;;
38224;SDS011;24025;48.138;11.428;2023-03-21T05:13:15;1.73;;;1.60;;
38224;SDS011;24025;48.138;11.428;2023-03-21T05:15:47;3.13;;;1.50;;
38224;SDS011;24025;48.138;11.428;2023-03-21T05:18:20;2.00;;;1.67;;
38224;SDS011;24025;48.138;11.428;2023-03-21T05:20:55;2.28;;;1.55;;
38224;SDS011;24025;48.138;11.428;2023-03-21T05:26:01;3.63;;;1.70;;
38224;SDS011;24025;48.138;11.428;2023-03-21T05:28:33;2.50;;;1.85;;
38224;SDS011;24025;48.138;11.428;2023-03-21T05:31:06;1.77;;;1.65;;
38224;SDS011;24025;48.138;11.428;2023-03-21T05:33:39;2.60;;;1.67;;
38224;SDS011;24025;48.138;11.428;2023-03-21T05:36:10;1.98;;;1.58;;
38224;SDS011;24025;48.138;11.428;2023-03-21T05:41:16;3.53;;;1.88;;
38224;SDS011;24025;48.138;11.428;2023-03-21T05:43:49;1.90;;;1.50;;
38224;SDS011;24025;48.138;11.428;2023-03-21T05:46:21;2.50;;;1.85;;
38224;SDS011;24025;48.138;11.428;2023-03-21T05:48:52;4.68;;;2.10;;
38224;SDS011;24025;48.138;11.428;2023-03-21T05:51:24;3.88;;;1.60;;
38224;SDS011;24025;48.138;11.428;2023-03-21T05:53:55;4.72;;;1.70;;
38224;SDS011;24025;48.138;11.428;2023-03-21T05:56:27;4.03;;;2.42;;
38224;SDS011;24025;48.138;11.428;2023-03-21T05:58:59;3.83;;;2.20;;
38224;SDS011;24025;48.138;11.428;2023-03-21T06:01:30;4.93;;;2.50;;
38224;SDS011;24025;48.138;11.428;2023-03-21T06:04:02;2.80;;;1.90;;
38224;SDS011;24025;48.138;11.428;2023-03-21T06:06:34;4.60;;;2.20;;
38224;SDS011;24025;48.138;11.428;2023-03-21T06:09:05;3.25;;;1.80;;
38224;SDS011;24025;48.138;11.428;2023-03-21T06:11:37;2.42;;;1.50;;
38224;SDS011;24025;48.138;11.428;2023-03-21T06:14:12;4.60;;;1.73;;
38224;SDS011;24025;48.138;11.428;2023-03-21T06:16:44;3.47;;;1.77;;
38224;SDS011;24025;48.138;11.428;2023-03-21T06:19:15;2.88;;;1.88;;
38224;SDS011;24025;48.138;11.428;2023-03-21T06:21:47;2.80;;;1.90;;
38224;SDS011;24025;48.138;11.428;2023-03-21T06:24:20;4.25;;;1.75;;
38224;SDS011;24025;48.138;11.428;2023-03-21T06:26:51;4.03;;;1.98;;
38224;SDS011;24025;48.138;11.428;2023-03-21T06:29:23;4.18;;;1.63;;
38224;SDS011;24025;48.138;11.428;2023-03-21T06:31:55;5.53;;;1.75;;
38224;SDS011;24025;48.138;11.428;2023-03-21T06:34:26;2.17;;;1.65;;
38224;SDS011;24025;48.138;11.428;2023-03-21T06:36:58;3.20;;;2.05;;
38224;SDS011;24025;48.138;11.428;2023-03-21T06:39:29;4.85;;;1.60;;
38224;SDS011;24025;48.138;11.428;2023-03-21T06:42:03;2.88;;;1.75;;
38224;SDS011;24025;48.138;11.428;2023-03-21T06:44:34;5.38;;;2.15;;
38224;SDS011;24025;48.138;11.428;2023-03-21T06:47:06;4.25;;;1.58;;
38224;SDS011;24025;48.138;11.428;2023-03-21T06:49:38;5.47;;;2.03;;
38224;SDS011;24025;48.138;11.428;2023-03-21T06:52:11;4.03;;;1.85;;
38224;SDS011;24025;48.138;11.428;2023-03-21T06:54:42;2.38;;;1.65;;
38224;SDS011;24025;48.138;11.428;2023-03-21T06:57:14;2.92;;;1.70;;
38224;SDS011;24025;48.138;11.428;2023-03-21T06:59:46;2.95;;;1.70;;
38224;SDS011;24025;48.138;11.428;2023-03-21T07:02:17;7.88;;;2.05;;
38224;SDS011;24025;48.138;11.428;2023-03-21T07:04:49;2.28;;;1.75;;
38224;SDS011;24025;48.138;11.428;2023-03-21T07:07:23;3.88;;;1.52;;
38224;SDS011;24025;48.138;11.428;2023-03-21T07:09:56;2.38;;;1.65;;
38224;SDS011;24025;48.138;11.428;2023-03-21T07:12:28;2.72;;;1.80;;
38224;SDS011;24025;48.138;11.428;2023-03-21T07:14:59;3.47;;;1.80;;
38224;SDS011;24025;48.138;11.428;2023-03-21T07:17:32;1.63;;;1.40;;
38224;SDS011;24025;48.138;11.428;2023-03-21T07:20:04;3.60;;;2.15;;
38224;SDS011;24025;48.138;11.428;2023-03-21T07:22:38;5.38;;;2.03;;
38224;SDS011;24025;48.138;11.428;2023-03-21T07:25:11;3.25;;;2.00;;
38224;SDS011;24025;48.138;11.428;2023-03-21T07:27:42;9.02;;;2.10;;
38224;SDS011;24025;48.138;11.428;2023-03-21T07:30:14;2.55;;;2.08;;
38224;SDS011;24025;48.138;11.428;2023-03-21T07:32:46;4.72;;;2.47;;
38224;SDS011;24025;48.138;11.428;2023-03-21T07:35:18;3.80;;;2.10;;
38224;SDS011;24025;48.138;11.428;2023-03-21T07:37:49;4.97;;;1.77;;
38224;SDS011;24025;48.138;11.428;2023-03-21T07:40:21;2.83;;;2.00;;
38224;SDS011;24025;48.138;11.428;2023-03-21T07:42:53;3.13;;;1.92;;
38224;SDS011;24025;48.138;11.428;2023-03-21T07:45:24;14.70;;;2.22;;
38224;SDS011;24025;48.138;11.428;2023-03-21T07:47:57;4.90;;;2.00;;
38224;SDS011;24025;48.138;11.428;2023-03-21T07:50:29;5.43;;;2.15;;
38224;SDS011;24025;48.138;11.428;2023-03-21T07:53:01;9.32;;;2.05;;
38224;SDS011;24025;48.138;11.428;2023-03-21T07:55:32;4.55;;;2.10;;
38224;SDS011;24025;48.138;11.428;2023-03-21T07:58:05;3.97;;;2.17;;
38224;SDS011;24025;48.138;11.428;2023-03-21T08:00:36;4.50;;;2.58;;
38224;SDS011;24025;48.138;11.428;2023-03-21T08:03:08;3.40;;;2.25;;
38224;SDS011;24025;48.138;11.428;2023-03-21T08:05:40;4.88;;;2.50;;
38224;SDS011;24025;48.138;11.428;2023-03-21T08:08:12;5.32;;;2.42;;
38224;SDS011;24025;48.138;11.428;2023-03-21T08:10:44;3.45;;;2.30;;
38224;SDS011;24025;48.138;11.428;2023-03-21T08:13:16;5.30;;;3.13;;
38224;SDS011;24025;48.138;11.428;2023-03-21T08:15:47;6.13;;;2.50;;
38224;SDS011;24025;48.138;11.428;2023-03-21T08:18:19;4.80;;;1.90;;
38224;SDS011;24025;48.138;11.428;2023-03-21T08:20:54;3.65;;;2.10;;
38224;SDS011;24025;48.138;11.428;2023-03-21T08:23:27;5.80;;;2.33;;
38224;SDS011;24025;48.138;11.428;2023-03-21T08:26:00;5.72;;;2.08;;
38224;SDS011;24025;48.138;11.428;2023-03-21T08:28:32;4.43;;;2.25;;
38224;SDS011;24025;48.138;11.428;2023-03-21T08:31:08;7.15;;;2.40;;
38224;SDS011;24025;48.138;11.428;2023-03-21T08:33:40;3.13;;;2.20;;
38224;SDS011;24025;48.138;11.428;2023-03-21T08:36:12;3.55;;;2.22;;
38224;SDS011;24025;48.138;11.428;2023-03-21T08:38:43;5.63;;;2.28;;
38224;SDS011;24025;48.138;11.428;2023-03-21T08:41:18;6.53;;;2.47;;
38224;SDS011;24025;48.138;11.428;2023-03-21T08:43:52;4.30;;;2.80;;
38224;SDS011;24025;48.138;11.428;2023-03-21T08:46:24;6.63;;;2.53;;
38224;SDS011;24025;48.138;11.428;2023-03-21T08:48:55;6.43;;;2.70;;
38224;SDS011;24025;48.138;11.428;2023-03-21T08:51:27;10.45;;;2.63;;
38224;SDS011;24025;48.138;11.428;2023-03-21T08:53:59;3.75;;;2.00;;
38224;SDS011;24025;48.138;11.428;2023-03-21T08:56:30;7.00;;;2.58;;
38224;SDS011;24025;48.138;11.428;2023-03-21T08:59:02;4.07;;;2.45;;
38224;SDS011;24025;48.138;11.428;2023-03-21T09:01:34;4.20;;;2.50;;
38224;SDS011;24025;48.138;11.428;2023-03-21T09:04:07;2.50;;;1.60;;
38224;SDS011;24025;48.138;11.428;2023-03-21T09:06:41;4.05;;;1.80;;
38224;SDS011;24025;48.138;11.428;2023-03-21T09:09:16;3.70;;;1.67;;
38224;SDS011;24025;48.138;11.428;2023-03-21T09:11:48;4.82;;;2.20;;
38224;SDS011;24025;48.138;11.428;2023-03-21T09:14:22;4.53;;;2.35;;
38224;SDS011;24025;48.138;11.428;2023-03-21T09:16:59;2.88;;;2.20;;
38224;SDS011;24025;48.138;11.428;2023-03-21T09:19:31;5.15;;;2.75;;
38224;SDS011;24025;48.138;11.428;2023-03-21T09:22:03;4.10;;;2.70;;
38224;SDS011;24025;48.138;11.428;2023-03-21T09:24:34;7.70;;;2.42;;
38224;SDS011;24025;48.138;11.428;2023-03-21T09:27:06;5.88;;;2.95;;
38224;SDS011;24025;48.138;11.428;2023-03-21T09:29:38;5.03;;;2.53;;
38224;SDS011;24025;48.138;11.428;2023-03-21T09:32:13;6.03;;;2.85;;
38224;SDS011;24025;48.138;11.428;2023-03-21T09:34:45;4.45;;;2.90;;
38224;SDS011;24025;48.138;11.428;2023-03-21T09:37:18;3.78;;;2.45;;
38224;SDS011;24025;48.138;11.428;2023-03-21T09:39:51;3.38;;;2.58;;
38224;SDS011;24025;48.138;11.428;2023-03-21T09:47:42;6.95;;;2.20;;
38224;SDS011;24025;48.138;11.428;2023-03-21T09:50:23;5.22;;;2.40;;
38224;SDS011;24025;48.138;11.428;2023-03-21T09:53:02;2.22;;;1.67;;
38224;SDS011;24025;48.138;11.428;2023-03-21T09:55:57;4.95;;;2.30;;
38224;SDS011;24025;48.138;11.428;2023-03-21T09:58:32;3.53;;;2.08;;
38224;SDS011;24025;48.138;11.428;2023-03-21T10:03:52;4.10;;;1.90;;
38224;SDS011;24025;48.138;11.428;2023-03-21T10:06:26;3.80;;;1.95;;
38224;SDS011;24025;48.138;11.428;2023-03-21T10:09:01;3.42;;;2.10;;
38224;SDS011;24025;48.138;11.428;2023-03-21T10:14:17;3.53;;;1.55;;
38224;SDS011;24025;48.138;11.428;2023-03-21T10:16:58;2.75;;;1.88;;
38224;SDS011;24025;48.138;11.428;2023-03-21T10:19:34;4.38;;;1.38;;
38224;SDS011;24025;48.138;11.428;2023-03-21T10:22:07;4.28;;;1.85;;
38224;SDS011;24025;48.138;11.428;2023-03-21T10:24:39;2.42;;;1.67;;
38224;SDS011;24025;48.138;11.428;2023-03-21T10:27:11;5.00;;;1.60;;
38224;SDS011;24025;48.138;11.428;2023-03-21T10:29:43;3.33;;;1.60;;
38224;SDS011;24025;48.138;11.428;2023-03-21T10:32:16;2.25;;;1.30;;
38224;SDS011;24025;48.138;11.428;2023-03-21T10:37:32;4.35;;;1.58;;
38224;SDS011;24025;48.138;11.428;2023-03-21T10:40:05;3.25;;;1.50;;
38224;SDS011;24025;48.138;11.428;2023-03-21T10:42:38;2.22;;;1.38;;
38224;SDS011;24025;48.138;11.428;2023-03-21T10:45:14;4.07;;;1.40;;
38224;SDS011;24025;48.138;11.428;2023-03-21T10:47:48;2.47;;;1.40;;
38224;SDS011;24025;48.138;11.428;2023-03-21T10:50:21;2.28;;;1.10;;
38224;SDS011;24025;48.138;11.428;2023-03-21T10:52:59;1.42;;;1.02;;
38224;SDS011;24025;48.138;11.428;2023-03-21T10:55:32;5.30;;;1.30;;
38224;SDS011;24025;48.138;11.428;2023-03-21T10:58:06;5.60;;;1.20;;
38224;SDS011;24025;48.138;11.428;2023-03-21T11:00:41;1.67;;;1.17;;
38224;SDS011;24025;48.138;11.428;2023-03-21T11:03:23;2.08;;;1.45;;
38224;SDS011;24025;48.138;11.428;2023-03-21T11:06:04;2.60;;;1.40;;
38224;SDS011;24025;48.138;11.428;2023-03-21T11:08:48;2.15;;;1.27;;
38224;SDS011;24025;48.138;11.428;2023-03-21T11:11:25;2.45;;;1.60;;
38224;SDS011;24025;48.138;11.428;2023-03-21T11:13:58;1.92;;;1.45;;
38224;SDS011;24025;48.138;11.428;2023-03-21T11:16:40;1.90;;;1.10;;
38224;SDS011;24025;48.138;11.428;2023-03-21T11:19:18;2.47;;;1.65;;
38224;SDS011;24025;48.138;11.428;2023-03-21T11:21:57;4.13;;;1.30;;
38224;SDS011;24025;48.138;11.428;2023-03-21T11:24:29;2.70;;;1.20;;
38224;SDS011;24025;48.138;11.428;2023-03-21T11:27:05;4.07;;;1.20;;
38224;SDS011;24025;48.138;11.428;2023-03-21T11:29:38;2.33;;;1.17;;
38224;SDS011;24025;48.138;11.428;2023-03-21T11:32:21;14.45;;;2.83;;
38224;SDS011;24025;48.138;11.428;2023-03-21T11:37:50;2.80;;;1.60;;
38224;SDS011;24025;48.138;11.428;2023-03-21T11:42:57;3.22;;;1.42;;
38224;SDS011;24025;48.138;11.428;2023-03-21T11:45:30;1.52;;;1.10;;
38224;SDS011;24025;48.138;11.428;2023-03-21T11:48:12;3.70;;;1.60;;
38224;SDS011;24025;48.138;11.428;2023-03-21T11:50:46;6.07;;;1.70;;
38224;SDS011;24025;48.138;11.428;2023-03-21T11:58:53;2.50;;;1.50;;
38224;SDS011;24025;48.138;11.428;2023-03-21T12:02:11;2.30;;;1.27;;
38224;SDS011;24025;48.138;11.428;2023-03-21T12:24:01;3.65;;;1.60;;
38224;SDS011;24025;48.138;11.428;2023-03-21T12:26:42;2.42;;;1.58;;
38224;SDS011;24025;48.138;11.428;2023-03-21T12:38:35;2.60;;;1.98;;
38224;SDS011;24025;48.138;11.428;2023-03-21T12:41:26;3.20;;;1.70;;
38224;SDS011;24025;48.138;11.428;2023-03-21T12:44:02;2.05;;;1.60;;
38224;SDS011;24025;48.138;11.428;2023-03-21T12:46:42;2.13;;;1.60;;
38224;SDS011;24025;48.138;11.428;2023-03-21T12:49:36;2.92;;;2.45;;
38224;SDS011;24025;48.138;11.428;2023-03-21T12:52:24;2.70;;;2.00;;
38224;SDS011;24025;48.138;11.428;2023-03-21T12:55:09;3.75;;;1.50;;
38224;SDS011;24025;48.138;11.428;2023-03-21T12:58:10;2.58;;;1.65;;
38224;SDS011;24025;48.138;11.428;2023-03-21T13:00:53;2.50;;;1.58;;
38224;SDS011;24025;48.138;11.428;2023-03-21T13:03:41;4.65;;;1.80;;
38224;SDS011;24025;48.138;11.428;2023-03-21T13:06:22;1.90;;;1.70;;
38224;SDS011;24025;48.138;11.428;2023-03-21T13:09:01;2.40;;;2.08;;
38224;SDS011;24025;48.138;11.428;2023-03-21T13:11:41;2.30;;;1.63;;
38224;SDS011;24025;48.138;11.428;2023-03-21T13:14:16;2.22;;;1.95;;
38224;SDS011;24025;48.138;11.428;2023-03-21T13:16:57;4.05;;;2.20;;
38224;SDS011;24025;48.138;11.428;2023-03-21T13:19:38;4.40;;;2.03;;
38224;SDS011;24025;48.138;11.428;2023-03-21T13:25:04;2.03;;;1.73;;
38224;SDS011;24025;48.138;11.428;2023-03-21T13:27:37;2.05;;;1.65;;
38224;SDS011;24025;48.138;11.428;2023-03-21T13:30:24;2.40;;;1.92;;
38224;SDS011;24025;48.138;11.428;2023-03-21T13:33:09;1.95;;;1.75;;
38224;SDS011;24025;48.138;11.428;2023-03-21T13:35:44;2.00;;;1.48;;
38224;SDS011;24025;48.138;11.428;2023-03-21T13:38:17;5.13;;;1.38;;
38224;SDS011;24025;48.138;11.428;2023-03-21T13:41:04;1.08;;;0.98;;
38224;SDS011;24025;48.138;11.428;2023-03-21T13:46:14;4.35;;;1.83;;
38224;SDS011;24025;48.138;11.428;2023-03-21T13:49:35;4.63;;;1.65;;
38224;SDS011;24025;48.138;11.428;2023-03-21T13:54:43;2.75;;;2.03;;
38224;SDS011;24025;48.138;11.428;2023-03-21T13:57:28;1.83;;;1.67;;
38224;SDS011;24025;48.138;11.428;2023-03-21T14:02:52;1.55;;;1.40;;
38224;SDS011;24025;48.138;11.428;2023-03-21T14:05:47;1.80;;;1.05;;
38224;SDS011;24025;48.138;11.428;2023-03-21T14:08:20;3.92;;;1.48;;
38224;SDS011;24025;48.138;11.428;2023-03-21T14:11:08;4.93;;;1.52;;
38224;SDS011;24025;48.138;11.428;2023-03-21T14:13:45;2.53;;;1.50;;
38224;SDS011;24025;48.138;11.428;2023-03-21T14:16:21;1.60;;;1.50;;
38224;SDS011;24025;48.138;11.428;2023-03-21T14:19:02;4.10;;;1.95;;
38224;SDS011;24025;48.138;11.428;2023-03-21T14:21:36;1.60;;;1.35;;
38224;SDS011;24025;48.138;11.428;2023-03-21T14:24:11;2.10;;;1.60;;
38224;SDS011;24025;48.138;11.428;2023-03-21T14:26:45;2.40;;;1.45;;
38224;SDS011;24025;48.138;11.428;2023-03-21T14:29:25;1.70;;;1.50;;
38224;SDS011;24025;48.138;11.428;2023-03-21T14:32:02;1.73;;;1.42;;
38224;SDS011;24025;48.138;11.428;2023-03-21T14:34:35;2.88;;;1.77;;
38224;SDS011;24025;48.138;11.428;2023-03-21T14:37:09;1.80;;;1.70;;
38224;SDS011;24025;48.138;11.428;2023-03-21T14:39:41;6.05;;;1.95;;
38224;SDS011;24025;48.138;11.428;2023-03-21T14:42:13;1.85;;;1.63;;
38224;SDS011;24025;48.138;11.428;2023-03-21T14:44:48;3.70;;;1.90;;
38224;SDS011;24025;48.138;11.428;2023-03-21T14:47:27;3.47;;;1.63;;
38224;SDS011;24025;48.138;11.428;2023-03-21T14:49:59;2.13;;;1.88;;
38224;SDS011;24025;48.138;11.428;2023-03-21T14:52:32;2.33;;;1.67;;
38224;SDS011;24025;48.138;11.428;2023-03-21T14:55:10;4.82;;;1.90;;
38224;SDS011;24025;48.138;11.428;2023-03-21T14:57:46;4.25;;;1.83;;
38224;SDS011;24025;48.138;11.428;2023-03-21T15:00:23;2.58;;;2.38;;
38224;SDS011;24025;48.138;11.428;2023-03-21T15:03:00;3.00;;;1.95;;
38224;SDS011;24025;48.138;11.428;2023-03-21T15:05:33;3.33;;;2.10;;
38224;SDS011;24025;48.138;11.428;2023-03-21T15:11:06;4.10;;;2.10;;
38224;SDS011;24025;48.138;11.428;2023-03-21T15:13:46;3.15;;;1.58;;
38224;SDS011;24025;48.138;11.428;2023-03-21T15:16:21;6.65;;;2.00;;
38224;SDS011;24025;48.138;11.428;2023-03-21T15:18:53;2.65;;;2.00;;
38224;SDS011;24025;48.138;11.428;2023-03-21T15:21:27;2.80;;;1.70;;
38224;SDS011;24025;48.138;11.428;2023-03-21T15:24:02;2.47;;;1.88;;
38224;SDS011;24025;48.138;11.428;2023-03-21T15:26:44;4.65;;;2.92;;
38224;SDS011;24025;48.138;11.428;2023-03-21T15:29:17;3.80;;;2.13;;
38224;SDS011;24025;48.138;11.428;2023-03-21T15:31:49;8.20;;;2.03;;
38224;SDS011;24025;48.138;11.428;2023-03-21T15:34:22;3.70;;;2.30;;
38224;SDS011;24025;48.138;11.428;2023-03-21T15:37:03;2.60;;;2.40;;
38224;SDS011;24025;48.138;11.428;2023-03-21T15:39:37;4.43;;;1.85;;
38224;SDS011;24025;48.138;11.428;2023-03-21T15:42:25;3.33;;;2.55;;
38224;SDS011;24025;48.138;11.428;2023-03-21T15:45:00;9.55;;;1.92;;
38224;SDS011;24025;48.138;11.428;2023-03-21T15:48:05;3.25;;;1.98;;
38224;SDS011;24025;48.138;11.428;2023-03-21T15:50:40;7.10;;;2.00;;
38224;SDS011;24025;48.138;11.428;2023-03-21T15:53:17;2.85;;;1.98;;
38224;SDS011;24025;48.138;11.428;2023-03-21T15:55:56;2.83;;;2.00;;
38224;SDS011;24025;48.138;11.428;2023-03-21T15:58:33;2.53;;;1.92;;
38224;SDS011;24025;48.138;11.428;2023-03-21T16:01:14;3.05;;;1.85;;
38224;SDS011;24025;48.138;11.428;2023-03-21T16:03:54;2.95;;;1.90;;
38224;SDS011;24025;48.138;11.428;2023-03-21T16:06:33;7.20;;;2.50;;
38224;SDS011;24025;48.138;11.428;2023-03-21T16:11:42;5.13;;;1.92;;
38224;SDS011;24025;48.138;11.428;2023-03-21T16:14:18;4.40;;;2.53;;
38224;SDS011;24025;48.138;11.428;2023-03-21T16:16:51;4.28;;;1.80;;
38224;SDS011;24025;48.138;11.428;2023-03-21T16:19:23;6.93;;;2.40;;
38224;SDS011;24025;48.138;11.428;2023-03-21T16:21:55;5.70;;;2.95;;
38224;SDS011;24025;48.138;11.428;2023-03-21T16:24:26;4.95;;;2.72;;
38224;SDS011;24025;48.138;11.428;2023-03-21T16:26:58;16.80;;;2.92;;
38224;SDS011;24025;48.138;11.428;2023-03-21T16:29:30;6.70;;;2.88;;
38224;SDS011;24025;48.138;11.428;2023-03-21T16:32:02;3.08;;;2.50;;
38224;SDS011;24025;48.138;11.428;2023-03-21T16:34:36;3.60;;;2.83;;
38224;SDS011;24025;48.138;11.428;2023-03-21T16:37:11;4.60;;;2.67;;
38224;SDS011;24025;48.138;11.428;2023-03-21T16:39:46;6.65;;;2.72;;
38224;SDS011;24025;48.138;11.428;2023-03-21T16:42:17;9.40;;;3.17;;
38224;SDS011;24025;48.138;11.428;2023-03-21T16:44:49;6.57;;;4.18;;
38224;SDS011;24025;48.138;11.428;2023-03-21T16:47:21;4.93;;;3.05;;
38224;SDS011;24025;48.138;11.428;2023-03-21T16:49:55;3.17;;;2.55;;
38224;SDS011;24025;48.138;11.428;2023-03-21T16:52:27;4.05;;;2.88;;
38224;SDS011;24025;48.138;11.428;2023-03-21T16:54:58;6.57;;;2.50;;
38224;SDS011;24025;48.138;11.428;2023-03-21T16:57:30;4.57;;;3.28;;
38224;SDS011;24025;48.138;11.428;2023-03-21T17:00:02;11.80;;;8.43;;
38224;SDS011;24025;48.138;11.428;2023-03-21T17:02:37;9.02;;;4.68;;
38224;SDS011;24025;48.138;11.428;2023-03-21T17:05:09;6.10;;;3.38;;
38224;SDS011;24025;48.138;11.428;2023-03-21T17:07:41;5.25;;;2.83;;
38224;SDS011;24025;48.138;11.428;2023-03-21T17:10:25;6.65;;;3.00;;
38224;SDS011;24025;48.138;11.428;2023-03-21T17:12:59;11.82;;;2.75;;
38224;SDS011;24025;48.138;11.428;2023-03-21T17:15:31;14.60;;;3.15;;
38224;SDS011;24025;48.138;11.428;2023-03-21T17:18:03;5.68;;;2.67;;
38224;SDS011;24025;48.138;11.428;2023-03-21T17:20:34;3.63;;;3.17;;
38224;SDS011;24025;48.138;11.428;2023-03-21T17:23:08;10.20;;;3.85;;
38224;SDS011;24025;48.138;11.428;2023-03-21T17:25:41;5.60;;;4.13;;
38224;SDS011;24025;48.138;11.428;2023-03-21T17:28:12;5.13;;;3.53;;